Time;durP1;ratioP1;P1;durP2;ratioP2;P2;SDS_P1;SDS_P2;PMS_P1;PMS_P2;Temp;Humidity;BMP_temperature;BMP_pressure;BME280_temperature;BME280_humidity;BME280_pressure;Samples;Min_cycle;Max_cycle;Signal;HPM_P1;HPM_P2
2023/09/29 00:00:51;;;;;;;8.15;3.10;;;;;;;;;;6281752;22;20019;-83
2023/09/29 00:03:17;;;;;;;8.70;2.88;;;;;;;;;;6279115;22;20019;-82
2023/09/29 00:05:43;;;;;;;6.53;2.88;;;;;;;;;;6278968;22;20019;-83
2023/09/29 00:08:15;;;;;;;10.40;3.78;;;;;;;;;;6276358;22;20015;-83
2023/09/29 00:10:41;;;;;;;6.40;3.33;;;;;;;;;;6278255;22;20041;-83
2023/09/29 00:13:07;;;;;;;7.03;3.35;;;;;;;;;;6252850;22;20018;-83
2023/09/29 00:15:34;;;;;;;6.93;3.05;;;;;;;;;;6306322;22;20015;-83
2023/09/29 00:18:00;;;;;;;8.38;3.85;;;;;;;;;;6305051;22;20098;-83
2023/09/29 00:20:26;;;;;;;8.30;3.42;;;;;;;;;;6307112;22;20016;-83
2023/09/29 00:22:56;;;;;;;8.25;3.80;;;;;;;;;;6279108;22;20050;-83
2023/09/29 00:25:26;;;;;;;11.48;3.15;;;;;;;;;;6278583;22;20011;-83
2023/09/29 00:27:52;;;;;;;9.25;2.90;;;;;;;;;;6306414;22;20018;-83
2023/09/29 00:30:19;;;;;;;8.98;3.50;;;;;;;;;;6278331;22;20012;-84
2023/09/29 00:32:45;;;;;;;10.27;3.33;;;;;;;;;;6306858;22;20011;-83
2023/09/29 00:35:11;;;;;;;9.30;3.25;;;;;;;;;;6279076;22;20011;-83
2023/09/29 00:37:37;;;;;;;8.45;3.35;;;;;;;;;;6278057;22;20054;-84
2023/09/29 00:40:12;;;;;;;7.85;3.63;;;;;;;;;;6278264;22;20060;-83
2023/09/29 00:42:39;;;;;;;12.52;5.13;;;;;;;;;;6279069;22;20023;-83
2023/09/29 00:45:05;;;;;;;7.00;3.38;;;;;;;;;;6277509;22;20026;-83
2023/09/29 00:47:32;;;;;;;8.93;3.88;;;;;;;;;;6277802;22;20023;-84
2023/09/29 00:49:58;;;;;;;8.48;3.17;;;;;;;;;;6306126;22;20047;-83
2023/09/29 00:52:27;;;;;;;6.70;3.25;;;;;;;;;;6277515;22;20015;-83
2023/09/29 00:54:53;;;;;;;6.97;2.83;;;;;;;;;;6277414;22;20007;-83
2023/09/29 00:57:19;;;;;;;8.45;3.45;;;;;;;;;;6277588;22;20317;-83
2023/09/29 00:59:46;;;;;;;6.15;3.47;;;;;;;;;;6278265;22;20019;-83
2023/09/29 01:02:14;;;;;;;7.18;3.40;;;;;;;;;;6277665;22;20016;-83
2023/09/29 01:04:40;;;;;;;6.70;3.20;;;;;;;;;;6278944;22;20086;-83
2023/09/29 01:07:08;;;;;;;6.75;3.17;;;;;;;;;;6278304;22;20018;-83
2023/09/29 01:09:34;;;;;;;6.72;3.22;;;;;;;;;;6278021;22;20019;-83
2023/09/29 01:12:00;;;;;;;7.32;3.17;;;;;;;;;;6304496;22;20440;-83
2023/09/29 01:14:26;;;;;;;9.40;3.65;;;;;;;;;;6277858;22;20008;-84
2023/09/29 01:16:52;;;;;;;6.68;3.40;;;;;;;;;;6279316;22;20325;-83
2023/09/29 01:19:20;;;;;;;7.60;3.35;;;;;;;;;;6278129;22;20015;-83
2023/09/29 01:21:46;;;;;;;6.97;3.20;;;;;;;;;;6279705;22;20447;-83
2023/09/29 01:24:13;;;;;;;7.93;3.72;;;;;;;;;;6253635;22;20094;-83
2023/09/29 01:26:39;;;;;;;8.98;3.90;;;;;;;;;;6279606;22;20065;-83
2023/09/29 01:29:05;;;;;;;9.48;3.80;;;;;;;;;;6277918;22;20094;-83
2023/09/29 01:31:34;;;;;;;6.78;3.65;;;;;;;;;;6278762;22;20007;-83
2023/09/29 01:34:01;;;;;;;9.60;3.50;;;;;;;;;;6277980;22;20011;-83
2023/09/29 01:36:27;;;;;;;7.32;3.53;;;;;;;;;;6306374;22;20011;-83
2023/09/29 01:38:54;;;;;;;8.30;3.35;;;;;;;;;;6305292;22;20023;-83
2023/09/29 01:41:20;;;;;;;12.02;3.38;;;;;;;;;;6277969;22;20476;-83
2023/09/29 01:43:47;;;;;;;5.75;3.63;;;;;;;;;;6307034;22;20505;-84
2023/09/29 01:46:15;;;;;;;10.77;3.25;;;;;;;;;;6278756;22;20075;-83
2023/09/29 01:48:41;;;;;;;8.80;4.32;;;;;;;;;;6279426;22;20030;-83
2023/09/29 01:51:07;;;;;;;8.98;3.60;;;;;;;;;;6279218;22;20088;-83
2023/09/29 01:53:33;;;;;;;11.55;3.92;;;;;;;;;;6280977;22;20495;-83
2023/09/29 01:56:02;;;;;;;8.45;3.30;;;;;;;;;;6279814;22;20027;-83
2023/09/29 01:58:28;;;;;;;5.25;2.65;;;;;;;;;;6279066;22;20015;-83
2023/09/29 02:00:54;;;;;;;6.40;4.15;;;;;;;;;;6280397;22;20015;-83
2023/09/29 02:03:20;;;;;;;5.30;3.17;;;;;;;;;;6284902;22;20020;-83
2023/09/29 02:05:47;;;;;;;6.90;3.35;;;;;;;;;;6310329;22;20011;-84
2023/09/29 02:08:13;;;;;;;9.10;3.15;;;;;;;;;;6305946;22;20012;-83
2023/09/29 02:10:39;;;;;;;8.35;3.78;;;;;;;;;;6282358;22;20016;-83
2023/09/29 02:13:05;;;;;;;6.75;3.30;;;;;;;;;;6285053;22;20022;-83
2023/09/29 02:15:34;;;;;;;5.45;3.33;;;;;;;;;;6269079;22;20026;-83
2023/09/29 02:18:00;;;;;;;8.88;3.67;;;;;;;;;;6307961;22;20058;-83
2023/09/29 02:20:33;;;;;;;9.55;3.35;;;;;;;;;;6306946;22;20069;-83
2023/09/29 02:23:00;;;;;;;6.97;2.97;;;;;;;;;;6275227;22;20015;-83
2023/09/29 02:25:26;;;;;;;8.10;3.60;;;;;;;;;;6275217;22;20015;-83
2023/09/29 02:27:56;;;;;;;6.50;3.53;;;;;;;;;;6281694;22;20037;-83
2023/09/29 02:30:22;;;;;;;7.72;3.55;;;;;;;;;;6306434;22;20015;-83
2023/09/29 02:32:48;;;;;;;6.63;3.42;;;;;;;;;;6306695;22;20071;-83
2023/09/29 02:35:14;;;;;;;6.75;2.97;;;;;;;;;;6305053;22;20027;-83
2023/09/29 02:37:41;;;;;;;7.53;3.38;;;;;;;;;;6305656;22;20094;-83
2023/09/29 02:40:09;;;;;;;8.38;3.65;;;;;;;;;;6288759;22;20011;-83
2023/09/29 02:42:35;;;;;;;8.60;3.53;;;;;;;;;;6281379;22;20061;-83
2023/09/29 02:45:01;;;;;;;6.68;3.22;;;;;;;;;;6280285;22;20011;-83
2023/09/29 02:47:27;;;;;;;5.40;3.13;;;;;;;;;;6280005;22;20551;-83
2023/09/29 02:49:53;;;;;;;4.15;2.58;;;;;;;;;;6281890;22;20015;-83
2023/09/29 02:52:20;;;;;;;7.70;3.28;;;;;;;;;;6280438;22;20111;-83
2023/09/29 02:54:46;;;;;;;7.95;3.10;;;;;;;;;;6280212;22;20086;-84
2023/09/29 02:57:14;;;;;;;8.23;3.35;;;;;;;;;;6279346;22;20143;-84
2023/09/29 02:59:40;;;;;;;7.00;3.47;;;;;;;;;;6280143;22;20019;-83
2023/09/29 03:02:06;;;;;;;8.50;4.25;;;;;;;;;;6279031;22;20011;-83
2023/09/29 03:04:32;;;;;;;5.60;3.17;;;;;;;;;;6280300;22;20015;-83
2023/09/29 03:06:59;;;;;;;6.95;2.92;;;;;;;;;;6278751;22;20007;-83
2023/09/29 03:09:25;;;;;;;8.23;2.88;;;;;;;;;;6278999;22;20022;-83
2023/09/29 03:11:51;;;;;;;5.43;3.45;;;;;;;;;;6278990;22;20058;-83
2023/09/29 03:14:17;;;;;;;7.68;3.28;;;;;;;;;;6279020;22;20014;-83
2023/09/29 03:16:46;;;;;;;7.38;3.10;;;;;;;;;;6307019;22;20011;-84
2023/09/29 03:19:12;;;;;;;7.55;3.28;;;;;;;;;;6279292;22;20037;-83
2023/09/29 03:21:39;;;;;;;6.82;3.70;;;;;;;;;;6254309;22;20440;-83
2023/09/29 03:24:07;;;;;;;6.60;3.47;;;;;;;;;;6278564;22;20011;-83
2023/09/29 03:26:34;;;;;;;6.88;3.20;;;;;;;;;;6274729;22;20015;-83
2023/09/29 03:29:00;;;;;;;7.60;3.60;;;;;;;;;;6277555;22;20015;-83
2023/09/29 03:31:26;;;;;;;7.22;3.47;;;;;;;;;;6254156;22;20382;-83
2023/09/29 03:33:52;;;;;;;6.78;3.25;;;;;;;;;;6279462;22;20018;-83
2023/09/29 03:36:21;;;;;;;6.13;3.40;;;;;;;;;;6306164;22;20054;-83
2023/09/29 03:38:47;;;;;;;5.72;3.03;;;;;;;;;;6305928;22;20082;-83
2023/09/29 03:41:13;;;;;;;8.60;3.63;;;;;;;;;;6307116;22;20018;-83
2023/09/29 03:43:40;;;;;;;5.95;3.70;;;;;;;;;;6280626;22;20012;-83
2023/09/29 03:46:06;;;;;;;7.47;3.63;;;;;;;;;;6278321;22;20030;-83
2023/09/29 03:48:32;;;;;;;7.85;3.53;;;;;;;;;;6279306;22;20038;-83
2023/09/29 03:51:02;;;;;;;7.60;3.53;;;;;;;;;;6253572;22;20011;-83
2023/09/29 03:53:28;;;;;;;6.72;3.85;;;;;;;;;;6277813;22;20082;-83
2023/09/29 03:55:56;;;;;;;10.65;4.10;;;;;;;;;;6278304;22;20015;-83
2023/09/29 03:58:24;;;;;;;10.75;3.85;;;;;;;;;;6278266;22;20324;-83
2023/09/29 04:00:50;;;;;;;8.98;4.10;;;;;;;;;;6277655;22;20015;-83
2023/09/29 04:03:16;;;;;;;10.45;4.03;;;;;;;;;;6278914;22;20065;-83
2023/09/29 04:05:42;;;;;;;9.30;4.55;;;;;;;;;;6279063;22;20019;-83
2023/09/29 04:08:08;;;;;;;6.90;3.75;;;;;;;;;;6279114;22;20022;-83
2023/09/29 04:10:36;;;;;;;6.78;4.20;;;;;;;;;;6278776;22;20081;-84
2023/09/29 04:13:02;;;;;;;6.38;3.50;;;;;;;;;;6278657;22;20057;-83
2023/09/29 04:15:29;;;;;;;10.75;4.72;;;;;;;;;;6278490;22;20084;-83
2023/09/29 04:17:55;;;;;;;6.57;3.97;;;;;;;;;;6306426;22;20007;-83
2023/09/29 04:20:21;;;;;;;7.55;4.50;;;;;;;;;;6306565;22;20011;-83
2023/09/29 04:22:47;;;;;;;5.55;3.67;;;;;;;;;;6306902;22;20019;-83
2023/09/29 04:25:13;;;;;;;6.35;4.25;;;;;;;;;;6278776;22;20347;-83
2023/09/29 04:27:40;;;;;;;6.07;4.13;;;;;;;;;;6279356;22;20105;-83
2023/09/29 04:30:07;;;;;;;8.27;4.38;;;;;;;;;;6279278;22;20086;-84
2023/09/29 04:32:33;;;;;;;6.82;4.10;;;;;;;;;;6278260;22;20019;-83
2023/09/29 04:34:59;;;;;;;7.65;3.95;;;;;;;;;;6278693;22;20011;-83
2023/09/29 04:37:25;;;;;;;8.95;4.43;;;;;;;;;;6279136;22;20018;-83
2023/09/29 04:39:51;;;;;;;8.73;4.70;;;;;;;;;;6278618;22;20023;-83
2023/09/29 04:42:18;;;;;;;8.80;4.50;;;;;;;;;;6278545;22;20042;-83
2023/09/29 04:44:44;;;;;;;9.73;4.68;;;;;;;;;;6279292;22;20019;-83
2023/09/29 04:47:10;;;;;;;6.68;4.30;;;;;;;;;;6278225;22;20023;-83
2023/09/29 04:49:37;;;;;;;9.38;4.57;;;;;;;;;;6277514;22;20027;-83
2023/09/29 04:52:03;;;;;;;8.35;4.28;;;;;;;;;;6277609;22;20082;-83
2023/09/29 04:54:29;;;;;;;6.57;4.03;;;;;;;;;;6278820;22;20015;-83
2023/09/29 04:56:55;;;;;;;8.48;4.25;;;;;;;;;;6278636;22;20019;-83
2023/09/29 04:59:21;;;;;;;8.00;4.50;;;;;;;;;;6305079;22;20520;-83
2023/09/29 05:01:47;;;;;;;7.50;4.57;;;;;;;;;;6278164;22;20022;-83
2023/09/29 05:04:13;;;;;;;7.82;3.95;;;;;;;;;;6305459;22;20116;-83
2023/09/29 05:06:39;;;;;;;7.22;4.43;;;;;;;;;;6305268;22;20010;-84
2023/09/29 05:09:06;;;;;;;9.25;4.95;;;;;;;;;;6305176;22;20019;-83
2023/09/29 05:11:32;;;;;;;8.40;4.30;;;;;;;;;;6252771;22;20011;-83
2023/09/29 05:13:58;;;;;;;9.80;4.38;;;;;;;;;;6253035;22;20479;-84
2023/09/29 05:16:24;;;;;;;7.38;4.97;;;;;;;;;;6277340;22;20125;-84
2023/09/29 05:18:53;;;;;;;6.78;4.18;;;;;;;;;;6279360;22;20466;-82
2023/09/29 05:21:19;;;;;;;8.00;4.30;;;;;;;;;;6313077;22;20019;-82
2023/09/29 05:23:46;;;;;;;9.15;5.00;;;;;;;;;;6259217;22;20007;-82
2023/09/29 05:26:12;;;;;;;7.82;4.28;;;;;;;;;;6255954;22;20191;-83
2023/09/29 05:28:38;;;;;;;5.18;4.20;;;;;;;;;;6279198;22;20011;-84
2023/09/29 05:31:04;;;;;;;5.38;4.45;;;;;;;;;;6275231;22;20011;-87
2023/09/29 05:33:31;;;;;;;6.15;3.95;;;;;;;;;;6276204;22;20440;-88
2023/09/29 05:35:57;;;;;;;6.57;3.90;;;;;;;;;;6279843;22;20049;-83
2023/09/29 05:38:23;;;;;;;6.20;4.25;;;;;;;;;;6276959;22;20033;-83
2023/09/29 05:40:51;;;;;;;7.00;4.75;;;;;;;;;;6277433;22;20067;-83
2023/09/29 05:43:17;;;;;;;6.38;3.72;;;;;;;;;;6253977;22;20145;-82
2023/09/29 05:45:45;;;;;;;6.03;4.47;;;;;;;;;;6254817;22;20076;-83
2023/09/29 05:48:11;;;;;;;6.15;3.92;;;;;;;;;;6307484;22;20057;-83
2023/09/29 05:50:37;;;;;;;6.80;4.20;;;;;;;;;;6284309;22;20018;-83
2023/09/29 05:53:04;;;;;;;6.93;4.18;;;;;;;;;;6284121;22;20591;-83
2023/09/29 05:55:30;;;;;;;5.60;4.00;;;;;;;;;;6286170;22;20444;-82
2023/09/29 05:57:56;;;;;;;7.70;3.97;;;;;;;;;;6286130;22;20011;-83
2023/09/29 06:00:22;;;;;;;5.88;3.65;;;;;;;;;;6282647;22;20066;-83
2023/09/29 06:02:48;;;;;;;6.15;4.30;;;;;;;;;;6283468;22;20061;-82
2023/09/29 06:05:14;;;;;;;7.00;3.90;;;;;;;;;;6281336;22;20056;-83
2023/09/29 06:07:40;;;;;;;6.53;3.67;;;;;;;;;;6284370;22;20018;-83
2023/09/29 06:10:07;;;;;;;6.90;3.70;;;;;;;;;;6284557;22;20452;-82
2023/09/29 06:12:33;;;;;;;5.28;3.70;;;;;;;;;;6260062;22;20015;-83
2023/09/29 06:15:00;;;;;;;6.05;3.38;;;;;;;;;;6286527;22;20054;-84
2023/09/29 06:17:26;;;;;;;7.78;3.42;;;;;;;;;;6295231;22;20029;-83
2023/09/29 06:19:52;;;;;;;6.78;3.92;;;;;;;;;;6296837;22;20019;-83
2023/09/29 06:22:18;;;;;;;6.25;3.25;;;;;;;;;;6281141;22;20092;-83
2023/09/29 06:24:44;;;;;;;6.00;3.47;;;;;;;;;;6280654;22;20011;-82
2023/09/29 06:27:11;;;;;;;5.88;3.17;;;;;;;;;;6309151;22;20467;-82
2023/09/29 06:29:39;;;;;;;5.13;3.95;;;;;;;;;;6309410;22;20042;-82
2023/09/29 06:32:05;;;;;;;7.70;3.63;;;;;;;;;;6278534;22;20015;-87
2023/09/29 06:34:31;;;;;;;6.65;3.45;;;;;;;;;;6256231;22;20015;-85
2023/09/29 06:36:57;;;;;;;5.97;3.00;;;;;;;;;;6256299;22;20011;-82
2023/09/29 06:39:23;;;;;;;5.72;3.60;;;;;;;;;;6282859;22;20015;-83
2023/09/29 06:41:49;;;;;;;5.50;2.85;;;;;;;;;;6280600;22;20388;-83
2023/09/29 06:44:15;;;;;;;4.90;2.90;;;;;;;;;;6282597;22;20027;-84
2023/09/29 06:46:41;;;;;;;4.00;3.03;;;;;;;;;;6255922;22;20019;-85
2023/09/29 06:49:08;;;;;;;4.55;2.42;;;;;;;;;;6261826;22;20023;-84
2023/09/29 06:51:34;;;;;;;5.50;3.05;;;;;;;;;;6286793;22;20015;-84
2023/09/29 06:54:00;;;;;;;2.97;2.53;;;;;;;;;;6284797;22;20046;-84
2023/09/29 06:56:26;;;;;;;4.22;2.55;;;;;;;;;;6286955;22;20019;-86
2023/09/29 06:58:54;;;;;;;4.75;2.42;;;;;;;;;;6262835;22;20473;-86
2023/09/29 07:01:20;;;;;;;3.50;2.47;;;;;;;;;;6278385;22;20069;-87
2023/09/29 07:03:47;;;;;;;3.28;2.35;;;;;;;;;;6280956;22;20016;-88
2023/09/29 07:06:13;;;;;;;4.63;2.58;;;;;;;;;;6279627;22;20086;-85
2023/09/29 07:08:39;;;;;;;2.80;2.58;;;;;;;;;;6280544;22;20047;-86
2023/09/29 07:11:05;;;;;;;3.90;2.78;;;;;;;;;;6254255;22;20022;-86
2023/09/29 07:13:31;;;;;;;3.13;2.35;;;;;;;;;;6255429;22;20026;-86
2023/09/29 07:15:58;;;;;;;5.10;2.95;;;;;;;;;;6306404;22;20444;-85
2023/09/29 07:18:24;;;;;;;3.95;2.20;;;;;;;;;;6279450;22;20019;-86
2023/09/29 07:20:52;;;;;;;5.82;2.92;;;;;;;;;;6279767;22;20382;-86
2023/09/29 07:23:18;;;;;;;5.63;2.67;;;;;;;;;;6279972;22;20452;-86
2023/09/29 07:25:44;;;;;;;4.93;2.50;;;;;;;;;;6279231;22;20034;-85
2023/09/29 07:28:18;;;;;;;4.00;2.60;;;;;;;;;;6279355;22;20015;-85
2023/09/29 07:30:47;;;;;;;3.25;2.50;;;;;;;;;;6307107;22;20082;-85
2023/09/29 07:33:13;;;;;;;6.40;2.53;;;;;;;;;;6279311;22;20022;-86
2023/09/29 07:35:39;;;;;;;6.75;2.60;;;;;;;;;;6279532;22;20034;-88
2023/09/29 07:38:06;;;;;;;3.30;2.50;;;;;;;;;;6279752;22;20015;-90
2023/09/29 07:40:35;;;;;;;3.80;2.40;;;;;;;;;;6279837;22;20436;-87
2023/09/29 07:43:01;;;;;;;3.50;2.60;;;;;;;;;;6280680;22;20011;-87
2023/09/29 07:45:28;;;;;;;4.47;2.90;;;;;;;;;;6280882;22;20014;-84
2023/09/29 07:47:54;;;;;;;3.60;2.30;;;;;;;;;;6305877;22;20015;-86
2023/09/29 07:50:20;;;;;;;4.05;2.47;;;;;;;;;;6279277;22;20098;-86
2023/09/29 07:52:46;;;;;;;3.75;2.22;;;;;;;;;;6254490;22;20095;-86
2023/09/29 07:55:12;;;;;;;4.28;2.33;;;;;;;;;;6278806;22;20015;-86
2023/09/29 07:57:39;;;;;;;5.35;2.30;;;;;;;;;;6280095;22;20043;-86
2023/09/29 08:00:10;;;;;;;3.83;2.38;;;;;;;;;;6278805;22;20052;-86
2023/09/29 08:02:36;;;;;;;5.07;2.53;;;;;;;;;;6306897;22;20836;-86
2023/09/29 08:05:02;;;;;;;4.47;2.70;;;;;;;;;;6280784;22;20011;-86
2023/09/29 08:07:28;;;;;;;3.58;2.20;;;;;;;;;;6277579;22;20015;-89
2023/09/29 08:09:54;;;;;;;4.88;2.60;;;;;;;;;;6279011;22;20015;-85
2023/09/29 08:12:20;;;;;;;5.32;3.20;;;;;;;;;;6305817;22;20456;-86
2023/09/29 08:14:47;;;;;;;3.58;2.30;;;;;;;;;;6279690;22;20030;-86
2023/09/29 08:17:13;;;;;;;5.00;2.65;;;;;;;;;;6279906;22;20011;-85
2023/09/29 08:19:39;;;;;;;4.25;2.28;;;;;;;;;;6306935;22;20011;-85
2023/09/29 08:22:06;;;;;;;2.78;2.35;;;;;;;;;;6305643;22;20015;-85
2023/09/29 08:24:32;;;;;;;5.30;2.20;;;;;;;;;;6278849;22;20015;-85
2023/09/29 08:27:00;;;;;;;4.60;2.47;;;;;;;;;;6305895;22;20023;-85
2023/09/29 08:29:26;;;;;;;3.50;2.60;;;;;;;;;;6306112;22;20011;-85
2023/09/29 08:31:53;;;;;;;4.22;2.35;;;;;;;;;;6305916;22;20015;-85
2023/09/29 08:34:19;;;;;;;3.22;2.22;;;;;;;;;;6278703;22;20011;-87
2023/09/29 08:36:45;;;;;;;3.47;2.08;;;;;;;;;;6279848;22;20012;-84
2023/09/29 08:39:11;;;;;;;3.50;2.00;;;;;;;;;;6280388;22;20519;-83
2023/09/29 08:41:41;;;;;;;2.67;2.08;;;;;;;;;;6280858;22;20022;-83
2023/09/29 08:44:10;;;;;;;4.35;2.13;;;;;;;;;;6282126;22;20022;-84
2023/09/29 08:46:40;;;;;;;3.75;2.10;;;;;;;;;;6282161;22;20019;-84
2023/09/29 08:49:08;;;;;;;3.33;2.17;;;;;;;;;;6284703;22;20397;-84
2023/09/29 08:51:36;;;;;;;3.42;2.08;;;;;;;;;;6310741;22;20060;-85
2023/09/29 08:54:03;;;;;;;2.30;2.03;;;;;;;;;;6254475;22;20015;-87
2023/09/29 08:56:30;;;;;;;2.60;2.00;;;;;;;;;;6281739;22;20018;-87
2023/09/29 08:58:56;;;;;;;3.03;2.00;;;;;;;;;;6276629;22;20046;-86
2023/09/29 09:01:23;;;;;;;3.58;2.15;;;;;;;;;;6280142;22;20019;-89
2023/09/29 09:03:49;;;;;;;3.15;2.00;;;;;;;;;;6252552;22;20022;-88
2023/09/29 09:06:23;;;;;;;3.13;2.30;;;;;;;;;;6251676;22;20014;-88
2023/09/29 09:08:53;;;;;;;2.60;2.17;;;;;;;;;;6252743;22;20012;-88
2023/09/29 09:11:19;;;;;;;2.55;2.30;;;;;;;;;;6279102;22;20019;-88
2023/09/29 09:13:58;;;;;;;3.85;2.17;;;;;;;;;;6280764;22;20053;-89
2023/09/29 09:16:25;;;;;;;4.90;2.00;;;;;;;;;;6253944;22;20062;-88
2023/09/29 09:18:51;;;;;;;2.78;2.05;;;;;;;;;;6278969;22;20016;-86
2023/09/29 09:21:18;;;;;;;3.63;2.10;;;;;;;;;;6278865;22;20070;-88
2023/09/29 09:23:44;;;;;;;2.83;1.90;;;;;;;;;;6251437;22;20460;-89
2023/09/29 09:26:11;;;;;;;2.83;1.92;;;;;;;;;;6253556;22;20018;-90
2023/09/29 09:28:38;;;;;;;3.00;1.90;;;;;;;;;;6253485;22;20061;-90
2023/09/29 09:31:04;;;;;;;2.53;1.80;;;;;;;;;;6252346;22;20016;-89
2023/09/29 09:33:31;;;;;;;2.72;1.92;;;;;;;;;;6250493;22;20434;-90
2023/09/29 09:36:05;;;;;;;3.20;2.10;;;;;;;;;;6252146;22;20022;-90
2023/09/29 09:38:34;;;;;;;3.97;2.17;;;;;;;;;;6278299;22;20109;-90
2023/09/29 09:41:01;;;;;;;3.38;2.00;;;;;;;;;;6251734;22;20062;-90
2023/09/29 09:43:29;;;;;;;4.13;2.10;;;;;;;;;;6252842;22;20090;-88
2023/09/29 09:46:03;;;;;;;2.90;2.20;;;;;;;;;;6251240;22;20015;-87
2023/09/29 09:48:35;;;;;;;2.95;1.70;;;;;;;;;;6251913;22;20467;-85
2023/09/29 09:51:03;;;;;;;2.75;1.80;;;;;;;;;;6279234;22;20064;-85
2023/09/29 09:53:31;;;;;;;2.42;2.03;;;;;;;;;;6277236;22;20064;-84
2023/09/29 09:56:14;;;;;;;3.40;1.77;;;;;;;;;;6252489;22;20086;-84
2023/09/29 09:58:42;;;;;;;2.67;1.92;;;;;;;;;;6227019;22;20051;-83
2023/09/29 10:01:10;;;;;;;3.58;1.80;;;;;;;;;;6304689;22;20012;-85
2023/09/29 10:03:37;;;;;;;2.13;1.70;;;;;;;;;;6304914;22;20494;-85
2023/09/29 10:06:05;;;;;;;2.33;1.95;;;;;;;;;;6253276;22;20389;-85
2023/09/29 10:08:31;;;;;;;2.80;2.10;;;;;;;;;;6305446;22;20019;-84
2023/09/29 10:11:17;;;;;;;3.83;1.95;;;;;;;;;;6278768;22;20129;-84
2023/09/29 10:13:44;;;;;;;2.20;1.77;;;;;;;;;;6278427;22;20017;-85
2023/09/29 10:16:25;;;;;;;3.80;1.92;;;;;;;;;;6306336;22;20011;-85
2023/09/29 10:18:56;;;;;;;5.78;2.25;;;;;;;;;;6278916;22;20022;-86
2023/09/29 10:21:22;;;;;;;4.45;2.75;;;;;;;;;;6279801;22;20093;-81
2023/09/29 10:23:50;;;;;;;3.50;2.20;;;;;;;;;;6310057;22;20061;-81
2023/09/29 10:26:16;;;;;;;2.55;1.90;;;;;;;;;;6283888;22;20015;-81
2023/09/29 10:28:45;;;;;;;4.05;2.30;;;;;;;;;;6312085;22;20051;-81
2023/09/29 10:31:18;;;;;;;3.92;2.40;;;;;;;;;;6284749;22;20382;-81
2023/09/29 10:33:54;;;;;;;3.20;2.20;;;;;;;;;;6312169;22;20015;-81
2023/09/29 10:36:24;;;;;;;3.50;2.08;;;;;;;;;;6312041;22;20030;-81
2023/09/29 10:38:51;;;;;;;3.10;1.88;;;;;;;;;;6312153;22;20019;-81
2023/09/29 10:41:18;;;;;;;3.10;2.10;;;;;;;;;;6284521;22;20352;-81
2023/09/29 10:43:50;;;;;;;4.95;2.17;;;;;;;;;;6285252;22;20018;-81
2023/09/29 10:46:22;;;;;;;2.90;1.90;;;;;;;;;;6312572;22;20047;-81
2023/09/29 10:48:49;;;;;;;3.25;1.92;;;;;;;;;;6285236;22;20015;-81
2023/09/29 10:51:21;;;;;;;5.18;2.33;;;;;;;;;;6312182;22;20104;-81
2023/09/29 10:53:48;;;;;;;3.17;2.10;;;;;;;;;;6312591;22;20011;-81
2023/09/29 10:56:18;;;;;;;3.05;1.90;;;;;;;;;;6312757;22;20015;-81
2023/09/29 10:58:45;;;;;;;3.45;2.33;;;;;;;;;;6312599;22;20015;-81
2023/09/29 11:01:11;;;;;;;4.13;2.22;;;;;;;;;;6313116;22;20022;-81
2023/09/29 11:03:38;;;;;;;5.05;2.42;;;;;;;;;;6285266;22;20042;-81
2023/09/29 11:06:09;;;;;;;3.75;2.35;;;;;;;;;;6259018;22;20015;-81
2023/09/29 11:08:34;;;;;;;;;;;;;;;;;;6283979;22;20015;-81
2023/09/29 11:11:02;;;;;;;3.20;2.30;;;;;;;;;;6283862;22;19918;-81
2023/09/29 11:13:29;;;;;;;3.70;2.50;;;;;;;;;;6284246;22;20019;-81
2023/09/29 11:15:56;;;;;;;5.05;2.10;;;;;;;;;;6312493;22;20094;-81
2023/09/29 11:18:41;;;;;;;3.58;2.25;;;;;;;;;;6284750;22;20019;-81
2023/09/29 11:21:11;;;;;;;4.80;2.40;;;;;;;;;;6313949;22;20042;-81
2023/09/29 11:24:03;;;;;;;6.25;2.13;;;;;;;;;;6313682;22;20049;-81
2023/09/29 11:26:29;;;;;;;3.83;2.58;;;;;;;;;;6310102;22;20011;-81
2023/09/29 11:28:55;;;;;;;3.92;1.77;;;;;;;;;;6289145;22;20094;-81
2023/09/29 11:31:21;;;;;;;4.03;2.55;;;;;;;;;;6289429;22;20011;-81
2023/09/29 11:33:47;;;;;;;4.53;2.70;;;;;;;;;;6290373;22;20034;-81
2023/09/29 11:36:17;;;;;;;3.58;2.20;;;;;;;;;;6284609;22;20088;-81
2023/09/29 11:38:43;;;;;;;;;;;;;;;;;;6286439;22;20023;-81
2023/09/29 11:41:11;;;;;;;3.35;2.15;;;;;;;;;;6283637;22;20028;-81
2023/09/29 11:43:39;;;;;;;6.05;2.50;;;;;;;;;;6283523;22;20019;-81
2023/09/29 11:46:05;;;;;;;4.72;2.40;;;;;;;;;;6282374;22;20042;-81
2023/09/29 11:48:31;;;;;;;3.70;2.28;;;;;;;;;;6282705;22;20095;-81
2023/09/29 11:50:57;;;;;;;4.05;2.47;;;;;;;;;;6283171;22;20016;-81
2023/09/29 11:53:23;;;;;;;4.43;2.60;;;;;;;;;;6310462;22;20478;-81
2023/09/29 11:55:54;;;;;;;4.50;2.88;;;;;;;;;;6311751;22;20008;-81
2023/09/29 11:58:20;;;;;;;3.67;2.60;;;;;;;;;;6311208;22;20047;-81
2023/09/29 12:00:47;;;;;;;4.30;3.03;;;;;;;;;;6310008;22;20022;-81
2023/09/29 12:03:13;;;;;;;4.63;2.65;;;;;;;;;;6309987;22;20022;-81
2023/09/29 12:05:44;;;;;;;5.75;2.88;;;;;;;;;;6258775;22;20011;-82
2023/09/29 12:08:10;;;;;;;3.70;2.72;;;;;;;;;;6260219;22;20699;-82
2023/09/29 12:10:36;;;;;;;3.83;2.78;;;;;;;;;;6283702;22;20015;-82
2023/09/29 12:13:04;;;;;;;4.03;2.75;;;;;;;;;;6312611;22;20011;-82
2023/09/29 12:15:31;;;;;;;8.07;3.03;;;;;;;;;;6313487;22;20007;-82
2023/09/29 12:17:57;;;;;;;4.13;2.47;;;;;;;;;;6312637;22;20071;-82
2023/09/29 12:20:24;;;;;;;3.63;2.38;;;;;;;;;;6287918;22;20050;-82
2023/09/29 12:22:51;;;;;;;6.88;2.83;;;;;;;;;;6287913;22;20445;-82
2023/09/29 12:25:17;;;;;;;5.57;2.80;;;;;;;;;;6318844;22;20034;-82
2023/09/29 12:27:43;;;;;;;5.35;2.78;;;;;;;;;;6266086;22;20065;-82
2023/09/29 12:30:12;;;;;;;4.72;2.80;;;;;;;;;;6320047;22;20072;-82
2023/09/29 12:32:39;;;;;;;5.28;2.35;;;;;;;;;;6323772;22;20025;-82
2023/09/29 12:35:06;;;;;;;2.97;2.20;;;;;;;;;;6270551;22;20042;-82
2023/09/29 12:37:35;;;;;;;4.22;2.50;;;;;;;;;;6323116;22;20015;-82
2023/09/29 12:40:01;;;;;;;4.18;2.72;;;;;;;;;;6296719;22;20016;-82
2023/09/29 12:42:27;;;;;;;5.60;3.13;;;;;;;;;;6294632;22;20039;-82
2023/09/29 12:44:53;;;;;;;4.10;2.83;;;;;;;;;;6286511;22;20030;-82
2023/09/29 12:47:19;;;;;;;4.70;3.00;;;;;;;;;;6290360;22;20020;-81
2023/09/29 12:49:45;;;;;;;5.50;2.38;;;;;;;;;;6283616;22;20018;-80
2023/09/29 12:52:13;;;;;;;4.15;2.10;;;;;;;;;;6283557;22;20014;-80
2023/09/29 12:54:40;;;;;;;5.05;2.25;;;;;;;;;;6283937;22;20055;-80
2023/09/29 12:57:06;;;;;;;2.97;2.05;;;;;;;;;;6283199;22;20011;-80
2023/09/29 12:59:38;;;;;;;4.10;2.40;;;;;;;;;;6309835;22;20467;-81
2023/09/29 13:02:05;;;;;;;3.88;2.20;;;;;;;;;;6281905;22;20070;-80
2023/09/29 13:04:32;;;;;;;3.33;1.83;;;;;;;;;;6309606;22;20073;-81
2023/09/29 13:07:01;;;;;;;2.15;1.50;;;;;;;;;;6280855;22;20015;-80
2023/09/29 13:09:28;;;;;;;2.10;1.33;;;;;;;;;;6282624;22;20094;-80
2023/09/29 13:11:54;;;;;;;2.08;1.42;;;;;;;;;;6281864;22;20019;-81
2023/09/29 13:14:22;;;;;;;0.40;0.40;;;;;;;;;;6309562;22;20052;-81
2023/09/29 13:16:48;;;;;;;0.25;0.20;;;;;;;;;;6281955;22;20011;-81
2023/09/29 13:19:14;;;;;;;0.57;0.20;;;;;;;;;;6255839;22;20479;-81
2023/09/29 13:21:41;;;;;;;0.52;0.30;;;;;;;;;;6281323;22;20015;-81
2023/09/29 13:24:08;;;;;;;0.50;0.40;;;;;;;;;;6308400;22;20336;-81
2023/09/29 13:26:34;;;;;;;0.60;0.30;;;;;;;;;;6281443;22;20015;-81
2023/09/29 13:29:00;;;;;;;0.40;0.28;;;;;;;;;;6309284;22;20011;-80
2023/09/29 13:31:26;;;;;;;0.30;0.30;;;;;;;;;;6309285;22;20012;-80
2023/09/29 13:33:53;;;;;;;0.65;0.22;;;;;;;;;;6258446;22;20061;-81
2023/09/29 13:36:19;;;;;;;0.68;0.20;;;;;;;;;;6288136;22;20047;-81
2023/09/29 13:38:45;;;;;;;0.93;0.30;;;;;;;;;;6299458;22;20051;-81
2023/09/29 13:41:12;;;;;;;0.22;0.10;;;;;;;;;;6310452;22;20015;-81
2023/09/29 13:43:40;;;;;;;0.93;0.30;;;;;;;;;;6281444;22;20019;-81
2023/09/29 13:46:08;;;;;;;0.38;0.32;;;;;;;;;;6277684;22;20072;-82
2023/09/29 13:48:34;;;;;;;1.60;0.30;;;;;;;;;;6305883;22;20344;-81
2023/09/29 13:51:03;;;;;;;0.55;0.35;;;;;;;;;;6279101;22;20019;-81
2023/09/29 13:53:29;;;;;;;0.65;0.43;;;;;;;;;;6278822;22;20011;-81
2023/09/29 13:55:56;;;;;;;1.08;0.50;;;;;;;;;;6279522;22;20011;-81
2023/09/29 13:58:24;;;;;;;1.10;0.22;;;;;;;;;;6310768;22;20030;-81
2023/09/29 14:00:51;;;;;;;0.40;0.30;;;;;;;;;;6258298;22;20037;-82
2023/09/29 14:03:18;;;;;;;0.95;0.57;;;;;;;;;;6282971;22;20395;-80
2023/09/29 14:05:44;;;;;;;1.27;0.50;;;;;;;;;;6284144;22;20015;-81
2023/09/29 14:08:10;;;;;;;1.48;0.60;;;;;;;;;;6310730;22;20404;-81
2023/09/29 14:10:37;;;;;;;1.85;0.30;;;;;;;;;;6310791;22;20085;-82
2023/09/29 14:13:03;;;;;;;0.90;0.30;;;;;;;;;;6260087;22;20011;-81
2023/09/29 14:15:32;;;;;;;0.80;0.60;;;;;;;;;;6284771;22;20011;-80
2023/09/29 14:17:59;;;;;;;2.40;0.40;;;;;;;;;;6283391;22;20468;-82
2023/09/29 14:20:25;;;;;;;1.50;0.40;;;;;;;;;;6311203;22;20015;-81
2023/09/29 14:22:51;;;;;;;0.68;0.40;;;;;;;;;;6312320;22;20019;-81
2023/09/29 14:25:17;;;;;;;2.25;1.23;;;;;;;;;;6312486;22;20011;-82
2023/09/29 14:27:43;;;;;;;0.73;0.30;;;;;;;;;;6311138;22;20058;-81
2023/09/29 14:30:09;;;;;;;1.88;0.63;;;;;;;;;;6310639;22;20108;-82
2023/09/29 14:32:36;;;;;;;1.42;0.70;;;;;;;;;;6311263;22;20011;-82
2023/09/29 14:35:02;;;;;;;0.50;0.30;;;;;;;;;;6282490;22;20007;-82
2023/09/29 14:37:28;;;;;;;2.45;0.73;;;;;;;;;;6282752;22;20412;-82
2023/09/29 14:39:55;;;;;;;2.35;0.63;;;;;;;;;;6283237;22;20011;-82
2023/09/29 14:42:22;;;;;;;4.85;0.93;;;;;;;;;;6284643;22;20090;-82